Time;durP1;ratioP1;P1;durP2;ratioP2;P2;SDS_P1;SDS_P2;PMS_P1;PMS_P2;Temp;Humidity;BMP_temperature;BMP_pressure;BME280_temperature;BME280_humidity;BME280_pressure;Samples;Min_cycle;Max_cycle;Signal;HPM_P1;HPM_P2
2021/12/24 00:00:35;;;;;;;1.80;1.60;;;9.00;1.00;;;;;;5057164;28;20489;-82
2021/12/24 00:03:04;;;;;;;1.93;1.60;;;9.10;1.00;;;;;;5062476;28;20461;-80
2021/12/24 00:05:34;;;;;;;2.30;1.27;;;9.10;1.00;;;;;;5061927;28;20471;-82
2021/12/24 00:08:04;;;;;;;4.60;1.43;;;9.10;1.00;;;;;;5061033;28;20462;-81
2021/12/24 00:10:34;;;;;;;1.93;1.60;;;9.20;1.00;;;;;;5059448;28;20657;-81
2021/12/24 00:13:07;;;;;;;1.57;1.30;;;9.10;1.00;;;;;;5057654;28;20482;-81
2021/12/24 00:18:35;;;;;;;1.70;1.33;;;9.10;1.00;;;;;;5037350;28;20501;-82
2021/12/24 00:35:12;;;;;;;1.63;1.10;;;9.10;1.00;;;;;;5060716;28;20645;-81
2021/12/24 00:37:47;;;;;;;3.63;1.40;;;9.00;1.00;;;;;;5065178;28;20547;-81
2021/12/24 00:40:19;;;;;;;3.40;1.40;;;9.10;1.00;;;;;;5058436;28;20477;-82
2021/12/24 00:42:51;;;;;;;1.40;1.30;;;9.10;1.00;;;;;;5051996;28;20446;-81
2021/12/24 00:45:23;;;;;;;1.57;1.30;;;8.90;1.00;;;;;;5059965;28;20490;-82
2021/12/24 00:47:51;;;;;;;1.67;1.47;;;9.00;1.00;;;;;;5041636;28;20634;-81
2021/12/24 00:50:24;;;;;;;1.73;1.20;;;8.90;1.00;;;;;;5070534;28;20587;-82
2021/12/24 00:53:01;;;;;;;2.37;1.57;;;9.00;1.00;;;;;;5065282;28;20483;-82
2021/12/24 00:55:30;;;;;;;1.70;1.53;;;9.00;1.00;;;;;;5063093;28;20490;-82
2021/12/24 00:58:00;;;;;;;3.73;1.33;;;8.90;1.00;;;;;;5055334;28;20510;-80
2021/12/24 01:00:31;;;;;;;1.60;1.43;;;8.90;1.00;;;;;;5046250;28;20541;-81
2021/12/24 01:03:02;;;;;;;7.17;1.30;;;8.90;1.00;;;;;;5069800;28;20452;-82
2021/12/24 01:05:31;;;;;;;1.40;1.30;;;9.00;1.00;;;;;;5063358;28;20462;-82
2021/12/24 01:08:02;;;;;;;2.30;1.70;;;9.00;1.00;;;;;;5059580;28;21039;-81
2021/12/24 01:10:33;;;;;;;2.50;1.60;;;9.10;1.00;;;;;;5057639;28;20900;-82
2021/12/24 01:13:02;;;;;;;4.40;1.80;;;9.20;1.00;;;;;;5062527;28;20472;-81
2021/12/24 01:15:33;;;;;;;2.97;1.67;;;9.30;1.00;;;;;;5051307;28;20542;-81
2021/12/24 01:18:08;;;;;;;2.03;1.30;;;9.20;1.00;;;;;;5066898;28;20555;-81
2021/12/24 01:20:43;;;;;;;2.70;1.47;;;9.20;1.00;;;;;;5052425;28;20501;-81
2021/12/24 01:25:59;;;;;;;1.60;1.50;;;9.40;1.00;;;;;;5052405;28;20469;-81
2021/12/24 01:28:43;;;;;;;1.43;1.30;;;9.30;1.00;;;;;;5075309;28;20998;-81
2021/12/24 01:39:52;;;;;;;1.93;1.60;;;9.40;1.00;;;;;;5059776;28;20957;-81
2021/12/24 01:45:18;;;;;;;1.90;1.40;;;9.20;1.00;;;;;;5058403;28;20460;-81
2021/12/24 01:47:47;;;;;;;2.07;1.50;;;9.20;1.00;;;;;;5050384;28;20455;-81
2021/12/24 01:50:16;;;;;;;2.23;1.43;;;9.10;1.00;;;;;;5060144;28;20542;-81
2021/12/24 01:52:48;;;;;;;2.80;1.77;;;9.20;1.00;;;;;;5066954;28;20488;-81
2021/12/24 01:55:18;;;;;;;2.30;1.43;;;9.30;1.00;;;;;;5042690;28;21002;-81
2021/12/24 01:57:47;;;;;;;2.97;1.47;;;9.30;1.00;;;;;;5065336;28;20762;-83
2021/12/24 02:00:19;;;;;;;3.43;1.40;;;9.30;1.00;;;;;;5059359;28;20537;-82
2021/12/24 02:02:48;;;;;;;1.70;1.40;;;9.20;1.00;;;;;;5066798;28;20443;-82
2021/12/24 02:05:17;;;;;;;4.23;1.57;;;9.30;1.00;;;;;;5063647;28;21237;-81
2021/12/24 02:07:45;;;;;;;1.77;1.07;;;9.10;1.00;;;;;;5041103;28;20461;-82
2021/12/24 02:10:15;;;;;;;1.70;1.40;;;9.10;1.00;;;;;;5068148;28;20575;-81
2021/12/24 02:12:46;;;;;;;2.93;1.20;;;9.20;1.00;;;;;;5061221;28;20633;-82
2021/12/24 02:15:24;;;;;;;1.83;1.50;;;9.20;1.00;;;;;;5060197;28;20447;-84
2021/12/24 02:29:13;;;;;;;2.00;1.33;;;9.60;99.90;;;;;;5014306;28;20492;-82
2021/12/24 02:31:43;;;;;;;3.23;1.33;;;9.60;99.90;;;;;;5064743;28;20483;-81
2021/12/24 02:34:11;;;;;;;2.10;0.90;;;9.60;99.90;;;;;;5061863;28;20460;-81
2021/12/24 02:36:42;;;;;;;1.60;1.30;;;9.60;99.90;;;;;;5061095;28;20493;-82
2021/12/24 02:39:11;;;;;;;1.53;1.30;;;9.60;99.90;;;;;;5041186;28;20475;-81
2021/12/24 02:41:39;;;;;;;4.53;1.40;;;9.60;99.90;;;;;;5059456;28;20595;-82
2021/12/24 02:44:07;;;;;;;1.30;1.20;;;9.60;99.90;;;;;;5059676;28;20886;-81
2021/12/24 02:46:42;;;;;;;2.17;1.20;;;9.50;99.90;;;;;;5058795;28;20475;-82
2021/12/24 02:49:14;;;;;;;1.77;1.13;;;9.40;99.90;;;;;;5067772;28;20533;-82
2021/12/24 02:54:30;;;;;;;1.03;0.90;;;9.60;99.90;;;;;;5060018;28;20453;-82
2021/12/24 02:57:07;;;;;;;1.60;1.20;;;9.70;99.90;;;;;;5063828;28;20888;-82
2021/12/24 02:59:46;;;;;;;2.20;1.40;;;9.70;99.90;;;;;;5054980;28;20489;-82
2021/12/24 03:02:15;;;;;;;1.30;1.20;;;9.80;99.90;;;;;;5065928;28;20462;-82
2021/12/24 03:04:43;;;;;;;3.13;1.33;;;9.70;99.90;;;;;;5062508;28;20539;-82
2021/12/24 03:07:13;;;;;;;1.87;1.57;;;9.80;99.90;;;;;;5060850;28;21217;-81
2021/12/24 03:09:42;;;;;;;2.13;1.40;;;9.80;99.90;;;;;;5055009;28;20463;-82
2021/12/24 03:12:11;;;;;;;1.83;1.70;;;9.80;99.90;;;;;;5041857;28;20479;-82
2021/12/24 03:14:39;;;;;;;1.40;1.30;;;9.70;99.90;;;;;;5059986;28;20502;-78
2021/12/24 03:17:12;;;;;;;4.27;1.20;;;9.60;99.90;;;;;;5068193;28;21039;-82
2021/12/24 03:19:40;;;;;;;1.77;1.10;;;9.60;99.90;;;;;;5064946;28;20561;-83
2021/12/24 03:22:24;;;;;;;2.67;1.20;;;9.50;1.00;;;;;;5058469;28;21004;-80
2021/12/24 03:24:53;;;;;;;1.57;1.23;;;9.50;1.00;;;;;;5065206;28;20458;-82
2021/12/24 03:27:22;;;;;;;2.80;1.27;;;9.40;1.00;;;;;;5039746;28;20480;-83
2021/12/24 03:29:52;;;;;;;1.30;1.20;;;9.60;1.00;;;;;;5064410;28;20820;-83
2021/12/24 03:32:23;;;;;;;1.23;1.13;;;9.50;1.00;;;;;;5066497;28;20508;-82
2021/12/24 03:34:51;;;;;;;1.13;1.03;;;9.60;1.00;;;;;;5051341;28;20457;-82
2021/12/24 03:37:20;;;;;;;2.70;1.03;;;9.60;1.00;;;;;;5048924;28;20554;-81
2021/12/24 03:39:48;;;;;;;2.47;1.10;;;9.60;1.00;;;;;;5067872;28;20544;-81
2021/12/24 03:42:19;;;;;;;1.40;1.03;;;9.40;1.00;;;;;;5072876;28;20540;-82
2021/12/24 03:44:54;;;;;;;1.80;1.10;;;9.30;1.00;;;;;;5065995;28;21011;-81
2021/12/24 03:47:22;;;;;;;1.40;1.30;;;9.30;1.00;;;;;;5067228;28;20459;-82
2021/12/24 03:49:57;;;;;;;2.27;1.10;;;9.30;1.00;;;;;;5066641;28;20522;-82
2021/12/24 03:52:50;;;;;;;1.37;1.20;;;9.30;1.00;;;;;;5041803;28;21071;-82
2021/12/24 03:55:17;;;;;;;2.10;1.10;;;9.30;1.00;;;;;;5065552;28;20510;-82
2021/12/24 03:57:47;;;;;;;2.13;1.20;;;9.30;1.00;;;;;;5064548;28;20484;-82
2021/12/24 04:00:19;;;;;;;1.20;1.10;;;9.20;1.00;;;;;;5059575;28;20456;-81
2021/12/24 04:02:48;;;;;;;1.50;1.20;;;9.30;1.00;;;;;;5047536;28;20884;-83
2021/12/24 04:05:17;;;;;;;1.20;1.10;;;9.40;1.00;;;;;;5062084;28;20446;-83
2021/12/24 04:07:45;;;;;;;0.90;0.90;;;9.30;1.00;;;;;;5068223;28;20458;-82
2021/12/24 04:10:23;;;;;;;2.50;2.40;;;9.40;1.00;;;;;;5063495;28;20506;-81
2021/12/24 04:12:53;;;;;;;2.20;1.20;;;9.40;1.00;;;;;;5066672;28;20479;-82
2021/12/24 04:15:21;;;;;;;1.80;1.40;;;9.40;1.00;;;;;;5063703;28;20443;-82
2021/12/24 04:17:50;;;;;;;1.53;1.20;;;9.40;1.00;;;;;;5062908;28;20576;-81
2021/12/24 04:25:51;;;;;;;1.50;1.20;;;9.50;1.00;;;;;;5064579;28;20986;-82
2021/12/24 04:28:21;;;;;;;2.10;1.10;;;9.50;1.00;;;;;;5061267;28;20546;-82
2021/12/24 04:30:52;;;;;;;1.23;1.13;;;9.60;1.00;;;;;;5068688;28;20831;-83
2021/12/24 04:33:26;;;;;;;1.37;1.27;;;9.70;1.00;;;;;;5064555;28;20592;-82
2021/12/24 04:36:00;;;;;;;1.10;1.07;;;9.80;1.00;;;;;;5065170;28;20483;-81
2021/12/24 04:38:43;;;;;;;1.40;1.30;;;9.90;1.00;;;;;;5072870;28;20848;-82
2021/12/24 04:52:35;;;;;;;3.10;1.07;;;9.90;1.00;;;;;;5059323;28;20567;-82
2021/12/24 05:03:29;;;;;;;1.77;1.07;;;9.90;1.00;;;;;;5077435;28;20459;-83
2021/12/24 05:06:09;;;;;;;2.80;1.10;;;9.70;1.00;;;;;;5055870;28;20452;-83
2021/12/24 05:08:47;;;;;;;1.53;1.20;;;9.80;1.00;;;;;;5056507;28;20970;-83
2021/12/24 05:11:15;;;;;;;1.80;1.70;;;9.80;1.00;;;;;;5063339;28;20483;-82
2021/12/24 05:13:44;;;;;;;1.80;1.20;;;9.70;1.00;;;;;;5064788;28;20485;-82
2021/12/24 05:16:22;;;;;;;1.50;1.20;;;9.70;1.00;;;;;;5067318;28;20946;-82
2021/12/24 05:21:43;;;;;;;1.30;1.20;;;9.80;1.00;;;;;;5002623;28;20512;-82
2021/12/24 05:24:13;;;;;;;6.13;3.37;;;9.90;1.00;;;;;;5055637;28;20452;-80
2021/12/24 05:26:44;;;;;;;1.23;1.13;;;9.90;1.00;;;;;;5065483;28;20767;-82
2021/12/24 05:29:14;;;;;;;1.50;1.10;;;10.00;1.00;;;;;;5068305;28;20448;-82
2021/12/24 05:31:44;;;;;;;1.30;1.20;;;9.90;1.00;;;;;;5061867;28;20475;-81
2021/12/24 05:34:14;;;;;;;2.43;1.50;;;9.90;1.00;;;;;;5063583;28;20760;-82
2021/12/24 05:36:43;;;;;;;2.83;1.50;;;9.80;1.00;;;;;;5068725;28;21019;-82
2021/12/24 05:39:11;;;;;;;4.70;1.40;;;9.80;1.00;;;;;;5037019;28;20799;-82
2021/12/24 05:41:40;;;;;;;1.90;1.50;;;9.90;1.00;;;;;;5060147;28;20559;-82
2021/12/24 05:44:14;;;;;;;1.30;1.20;;;10.00;1.00;;;;;;5062223;28;20454;-82
2021/12/24 05:46:45;;;;;;;2.20;1.20;;;10.10;1.00;;;;;;5061213;28;20483;-82
2021/12/24 05:49:13;;;;;;;1.90;1.40;;;9.90;1.00;;;;;;5065447;28;20463;-82
2021/12/24 05:51:42;;;;;;;1.27;1.17;;;10.00;1.00;;;;;;5059282;28;20487;-82
2021/12/24 05:54:10;;;;;;;1.63;1.40;;;10.10;1.00;;;;;;5061744;28;20515;-82
2021/12/24 05:56:39;;;;;;;1.87;1.50;;;10.00;1.00;;;;;;5067782;28;20458;-82
2021/12/24 05:59:07;;;;;;;1.53;1.23;;;10.10;1.00;;;;;;5068255;28;20466;-83
2021/12/24 06:01:36;;;;;;;3.30;1.17;;;10.00;1.00;;;;;;5072125;28;21026;-81
2021/12/24 06:04:05;;;;;;;4.87;1.30;;;9.90;1.00;;;;;;5056547;28;20867;-81
2021/12/24 06:06:34;;;;;;;1.57;1.30;;;10.00;1.00;;;;;;5069743;28;21165;-82
2021/12/24 06:09:03;;;;;;;1.57;1.10;;;10.10;1.00;;;;;;5061878;28;20952;-82
2021/12/24 06:11:31;;;;;;;1.73;1.53;;;10.00;1.00;;;;;;5067483;28;20491;-81
2021/12/24 06:14:07;;;;;;;2.03;1.53;;;9.90;1.00;;;;;;5041408;28;20510;-82
2021/12/24 06:16:36;;;;;;;1.53;1.43;;;10.20;1.00;;;;;;5071342;28;20549;-82
2021/12/24 06:19:05;;;;;;;1.57;1.20;;;9.90;1.00;;;;;;5056184;28;20552;-82
2021/12/24 06:21:34;;;;;;;2.80;1.43;;;10.00;1.00;;;;;;5062348;28;20483;-82
2021/12/24 06:24:03;;;;;;;2.63;1.30;;;10.10;1.00;;;;;;5066042;28;20485;-83
2021/12/24 06:26:31;;;;;;;2.17;1.40;;;10.00;1.00;;;;;;5058072;28;20450;-80
2021/12/24 06:28:59;;;;;;;1.47;1.37;;;10.00;1.00;;;;;;5057957;28;20472;-82
2021/12/24 06:31:28;;;;;;;1.83;1.33;;;9.90;1.00;;;;;;5065089;28;20488;-84
2021/12/24 06:33:56;;;;;;;2.40;1.23;;;10.00;1.00;;;;;;5064325;28;20460;-80
2021/12/24 06:36:26;;;;;;;2.87;1.57;;;10.10;1.00;;;;;;5060307;28;20464;-81
2021/12/24 06:38:54;;;;;;;1.37;1.27;;;10.20;1.00;;;;;;5058897;28;20456;-80
2021/12/24 06:41:22;;;;;;;2.03;1.87;;;10.10;1.00;;;;;;5055011;28;21313;-80
2021/12/24 06:43:50;;;;;;;1.70;1.17;;;10.10;1.00;;;;;;5061754;28;20486;-81
2021/12/24 06:46:18;;;;;;;4.50;1.30;;;10.30;1.00;;;;;;5065739;28;20834;-80
2021/12/24 06:48:55;;;;;;;2.00;1.80;;;10.30;1.00;;;;;;5058967;28;20537;-80
2021/12/24 06:51:24;;;;;;;1.40;1.27;;;10.20;1.00;;;;;;5060830;28;20476;-81
2021/12/24 06:53:53;;;;;;;2.57;1.30;;;10.10;1.00;;;;;;5058965;28;20920;-81
2021/12/24 06:56:21;;;;;;;2.43;1.50;;;10.10;1.00;;;;;;5058989;28;20554;-79
2021/12/24 06:58:50;;;;;;;2.50;1.47;;;10.20;1.00;;;;;;5061717;28;20473;-82
2021/12/24 07:01:18;;;;;;;1.80;1.50;;;10.20;1.00;;;;;;5060812;28;22910;-80
2021/12/24 07:03:47;;;;;;;1.80;1.47;;;10.20;1.00;;;;;;5059570;28;21275;-80
2021/12/24 07:06:15;;;;;;;3.00;1.73;;;10.10;1.00;;;;;;5063483;28;20460;-81
2021/12/24 07:08:45;;;;;;;3.03;1.27;;;10.10;1.00;;;;;;5066462;28;20468;-80
2021/12/24 07:11:13;;;;;;;12.00;1.40;;;10.10;1.00;;;;;;5061308;28;20580;-84
2021/12/24 07:13:41;;;;;;;3.10;1.43;;;10.00;1.00;;;;;;5068374;28;20468;-82
2021/12/24 07:16:09;;;;;;;1.70;1.30;;;10.00;1.00;;;;;;5062819;28;21026;-81
2021/12/24 07:18:39;;;;;;;1.97;1.43;;;10.10;1.00;;;;;;5064101;28;20460;-81
2021/12/24 07:21:07;;;;;;;2.47;1.47;;;10.10;1.00;;;;;;5064582;28;20905;-82
2021/12/24 07:23:35;;;;;;;1.88;1.50;;;10.10;1.00;;;;;;5067527;28;20441;-81
2021/12/24 07:26:05;;;;;;;6.40;1.60;;;10.10;1.00;;;;;;5054969;28;20193;-80
2021/12/24 07:28:33;;;;;;;2.90;1.70;;;10.10;1.00;;;;;;5060972;28;20539;-81
2021/12/24 07:31:01;;;;;;;1.37;1.10;;;10.10;1.00;;;;;;5061275;28;20500;-82
2021/12/24 07:33:29;;;;;;;2.00;1.60;;;10.10;1.00;;;;;;5068941;28;21002;-82
2021/12/24 07:35:58;;;;;;;2.23;1.90;;;10.10;1.00;;;;;;5067255;28;20486;-82
2021/12/24 07:38:26;;;;;;;1.60;1.30;;;10.00;1.00;;;;;;5073565;28;20445;-80
2021/12/24 07:40:54;;;;;;;2.70;1.93;;;9.90;1.00;;;;;;5068546;28;20224;-79
2021/12/24 07:43:24;;;;;;;2.73;1.47;;;10.00;1.00;;;;;;5069356;28;20471;-83
2021/12/24 07:45:54;;;;;;;1.60;1.50;;;9.60;1.00;;;;;;5053785;28;20861;-82
2021/12/24 07:48:28;;;;;;;3.47;1.60;;;9.90;1.00;;;;;;5064595;28;20457;-82
2021/12/24 07:53:43;;;;;;;1.37;1.27;;;10.00;1.00;;;;;;5069448;28;20456;-82
2021/12/24 07:56:12;;;;;;;1.50;1.30;;;10.10;1.00;;;;;;5067443;28;20486;-82
2021/12/24 07:58:41;;;;;;;1.40;1.30;;;9.90;1.00;;;;;;5063360;28;20462;-82
2021/12/24 08:01:09;;;;;;;2.03;1.10;;;9.90;1.00;;;;;;5061207;28;20475;-82
2021/12/24 08:03:38;;;;;;;2.77;1.30;;;10.00;1.00;;;;;;5067355;28;20540;-81
2021/12/24 08:06:06;;;;;;;1.73;1.50;;;9.90;11.10;;;;;;5067504;28;20460;-82
2021/12/24 08:08:34;;;;;;;3.60;1.40;;;10.10;1.00;;;;;;5056485;28;20459;-81
2021/12/24 08:11:03;;;;;;;1.40;1.30;;;10.20;1.00;;;;;;5069062;28;20479;-83
2021/12/24 08:13:31;;;;;;;1.60;1.50;;;10.10;1.00;;;;;;5075998;28;20989;-81
2021/12/24 08:16:00;;;;;;;1.93;1.50;;;10.10;1.00;;;;;;5058891;28;20487;-82
2021/12/24 08:18:29;;;;;;;3.77;1.73;;;10.10;1.00;;;;;;5059633;28;21009;-83
2021/12/24 08:20:57;;;;;;;1.60;1.50;;;10.20;1.00;;;;;;5041201;28;20489;-81
2021/12/24 08:23:25;;;;;;;2.03;1.30;;;10.10;1.00;;;;;;5058200;28;20462;-81
2021/12/24 08:25:58;;;;;;;1.60;1.40;;;10.00;99.90;;;;;;5059562;28;20518;-80
2021/12/24 08:28:27;;;;;;;2.50;1.30;;;10.10;62.40;;;;;;5056227;28;20463;-80
2021/12/24 08:30:56;;;;;;;1.65;1.42;;;10.10;99.90;;;;;;5043402;28;20449;-81
2021/12/24 08:33:26;;;;;;;1.60;1.50;;;10.10;99.90;;;;;;5064818;28;20202;-79
2021/12/24 08:35:54;;;;;;;1.20;1.00;;;10.10;99.90;;;;;;5058388;28;20998;-82
2021/12/24 08:38:22;;;;;;;3.80;2.43;;;10.10;99.90;;;;;;5059805;28;20442;-82
2021/12/24 08:40:51;;;;;;;2.20;1.50;;;10.00;99.90;;;;;;5062071;28;20559;-80
2021/12/24 08:43:19;;;;;;;1.67;1.37;;;10.00;99.90;;;;;;5041539;28;20476;-82
2021/12/24 08:45:47;;;;;;;1.60;1.40;;;10.00;99.90;;;;;;5077954;28;20467;-80
2021/12/24 08:48:15;;;;;;;1.30;1.20;;;10.10;99.90;;;;;;5060082;28;20457;-87
2021/12/24 08:50:45;;;;;;;1.90;1.23;;;10.10;99.90;;;;;;5070283;28;20485;-82
2021/12/24 08:53:14;;;;;;;1.97;1.20;;;10.00;99.90;;;;;;5072399;28;20539;-80
2021/12/24 08:55:42;;;;;;;3.10;1.55;;;9.80;1.00;;;;;;5069493;28;20461;-82
2021/12/24 08:58:11;;;;;;;1.47;1.00;;;9.80;1.00;;;;;;5042348;28;20211;-81
2021/12/24 09:00:39;;;;;;;1.90;1.47;;;10.00;99.90;;;;;;5061026;28;20480;-81
2021/12/24 09:03:07;;;;;;;1.63;1.30;;;10.00;99.90;;;;;;5067817;28;21022;-79
2021/12/24 09:05:36;;;;;;;1.97;1.50;;;10.10;95.20;;;;;;5063905;28;20882;-80
2021/12/24 09:08:06;;;;;;;2.10;1.40;;;10.00;43.70;;;;;;5059991;28;20826;-82
2021/12/24 09:10:34;;;;;;;2.00;1.30;;;9.90;99.90;;;;;;5053627;28;20490;-80
2021/12/24 09:13:03;;;;;;;1.90;1.27;;;9.90;99.90;;;;;;5064778;28;20555;-81
2021/12/24 09:15:31;;;;;;;1.80;1.17;;;10.00;99.90;;;;;;5063746;28;20486;-81
2021/12/24 09:18:02;;;;;;;3.00;2.07;;;9.90;99.90;;;;;;5075411;28;20485;-82
2021/12/24 09:20:36;;;;;;;1.70;1.60;;;9.70;1.00;;;;;;5066417;28;21487;-81
2021/12/24 09:23:08;;;;;;;1.50;1.20;;;9.60;1.00;;;;;;5060595;28;20449;-81
2021/12/24 09:25:36;;;;;;;1.30;1.10;;;9.70;1.00;;;;;;5062417;28;20467;-83
2021/12/24 09:28:05;;;;;;;3.50;1.30;;;9.80;99.90;;;;;;5042837;28;20463;-81
2021/12/24 09:30:34;;;;;;;1.63;1.50;;;9.90;99.90;;;;;;5060832;28;20456;-81
2021/12/24 09:33:04;;;;;;;1.40;1.10;;;10.00;25.30;;;;;;5042074;28;20480;-81
2021/12/24 09:35:33;;;;;;;1.87;1.70;;;10.00;1.00;;;;;;5060691;28;20969;-80
2021/12/24 09:38:02;;;;;;;3.40;1.70;;;9.90;63.70;;;;;;5056620;28;20463;-81
2021/12/24 09:40:33;;;;;;;1.70;1.40;;;9.80;99.90;;;;;;5056135;28;20581;-78
2021/12/24 09:43:02;;;;;;;1.57;1.30;;;9.80;99.90;;;;;;5056319;28;20459;-80
2021/12/24 09:45:30;;;;;;;2.70;1.40;;;9.60;99.90;;;;;;5057216;28;20487;-80
2021/12/24 09:47:58;;;;;;;1.67;1.57;;;9.70;31.90;;;;;;5054251;28;20840;-81
2021/12/24 09:50:28;;;;;;;4.70;1.90;;;9.60;99.90;;;;;;5053849;28;20653;-82
2021/12/24 09:52:57;;;;;;;1.90;1.58;;;9.70;99.90;;;;;;5035712;28;20450;-83
2021/12/24 09:55:29;;;;;;;1.50;1.40;;;9.70;1.00;;;;;;5052705;28;20209;-81
2021/12/24 09:57:59;;;;;;;1.30;1.20;;;9.70;1.00;;;;;;5052995;28;20507;-81
2021/12/24 10:00:28;;;;;;;1.33;1.23;;;9.70;30.40;;;;;;5057584;28;20992;-80
2021/12/24 10:02:58;;;;;;;1.70;1.40;;;9.80;99.90;;;;;;5057463;28;21026;-81
2021/12/24 10:05:33;;;;;;;1.73;1.30;;;9.90;1.00;;;;;;5059689;28;20460;-83
2021/12/24 10:08:17;;;;;;;1.40;1.30;;;9.60;1.00;;;;;;5067363;28;20811;-82
2021/12/24 10:10:47;;;;;;;1.57;1.40;;;9.60;1.00;;;;;;5056693;28;20533;-82
2021/12/24 10:13:30;;;;;;;1.83;1.60;;;9.70;99.90;;;;;;5065063;28;20444;-82
2021/12/24 10:16:00;;;;;;;2.10;1.90;;;9.80;99.90;;;;;;5058696;28;20588;-83
2021/12/24 10:18:31;;;;;;;2.63;1.70;;;9.80;1.00;;;;;;5054784;28;20482;-82
2021/12/24 10:21:04;;;;;;;1.43;1.33;;;9.90;99.90;;;;;;5057618;28;22706;-81
2021/12/24 10:23:50;;;;;;;1.67;1.57;;;9.90;99.90;;;;;;5056314;28;20455;-82
2021/12/24 10:26:23;;;;;;;3.57;1.40;;;10.00;1.00;;;;;;5056711;28;20444;-80
2021/12/24 10:28:58;;;;;;;1.33;1.00;;;10.00;1.00;;;;;;5065097;28;20460;-81
2021/12/24 10:31:29;;;;;;;1.90;1.70;;;10.10;1.00;;;;;;5063167;28;20478;-81
2021/12/24 10:34:23;;;;;;;1.33;1.17;;;10.20;99.90;;;;;;5065457;28;20488;-81
2021/12/24 10:37:13;;;;;;;2.03;1.30;;;10.10;1.00;;;;;;5057140;28;20494;-81
2021/12/24 10:39:47;;;;;;;1.70;1.17;;;10.20;1.00;;;;;;5050341;28;20462;-82
2021/12/24 10:42:26;;;;;;;3.17;1.63;;;10.10;1.00;;;;;;5059718;28;20927;-83
2021/12/24 10:44:58;;;;;;;1.30;1.20;;;10.20;99.90;;;;;;5061821;28;20448;-80
2021/12/24 10:47:28;;;;;;;1.40;1.30;;;10.20;99.90;;;;;;5040641;28;20847;-79
2021/12/24 10:50:13;;;;;;;1.90;1.20;;;10.10;1.00;;;;;;5034206;28;20496;-82
2021/12/24 10:53:01;;;;;;;1.47;1.20;;;9.70;12.20;;;;;;5052633;28;20473;-82
2021/12/24 10:55:33;;;;;;;1.53;1.13;;;9.80;1.00;;;;;;5057035;28;20967;-83
2021/12/24 10:58:01;;;;;;;2.43;1.40;;;9.80;1.00;;;;;;5055943;28;20504;-82
2021/12/24 11:00:34;;;;;;;2.10;1.00;;;9.80;1.00;;;;;;5046820;28;20476;-81
2021/12/24 11:03:05;;;;;;;1.13;1.03;;;9.70;69.30;;;;;;5057358;28;20465;-82
2021/12/24 11:05:37;;;;;;;4.33;1.20;;;9.60;99.90;;;;;;5045308;28;20515;-80
2021/12/24 11:08:09;;;;;;;1.13;0.80;;;9.70;1.00;;;;;;5054019;28;20472;-79
2021/12/24 11:10:40;;;;;;;1.53;0.90;;;9.60;1.00;;;;;;5058312;28;20474;-83
2021/12/24 11:13:13;;;;;;;1.57;1.20;;;9.70;1.00;;;;;;5060117;28;20472;-81
2021/12/24 11:15:45;;;;;;;1.90;1.00;;;9.60;30.00;;;;;;5067459;28;20463;-79
2021/12/24 11:18:19;;;;;;;1.43;0.80;;;9.70;1.00;;;;;;5057205;28;20484;-82
2021/12/24 11:20:53;;;;;;;0.90;0.90;;;9.60;1.00;;;;;;5058995;28;20476;-82
2021/12/24 11:23:22;;;;;;;1.10;0.70;;;9.70;99.90;;;;;;5042081;28;20997;-80
2021/12/24 11:25:53;;;;;;;1.47;1.27;;;9.80;1.00;;;;;;5061026;28;20913;-82
2021/12/24 11:28:23;;;;;;;1.00;0.90;;;9.80;1.00;;;;;;5050785;28;21032;-80
2021/12/24 11:30:55;;;;;;;0.87;0.87;;;9.80;1.00;;;;;;5052140;28;20560;-82
2021/12/24 11:33:26;;;;;;;0.90;0.90;;;9.80;1.00;;;;;;5051312;28;20900;-83
2021/12/24 11:35:56;;;;;;;1.23;1.00;;;9.90;99.90;;;;;;5053805;28;20464;-81
2021/12/24 11:38:26;;;;;;;3.30;1.10;;;9.80;1.00;;;;;;5050685;28;20496;-82
2021/12/24 11:41:00;;;;;;;0.90;0.90;;;9.90;99.90;;;;;;5066700;28;20482;-83
2021/12/24 11:43:30;;;;;;;1.03;0.80;;;10.10;1.00;;;;;;5040516;28;20508;-80
2021/12/24 11:46:02;;;;;;;2.00;0.80;;;9.80;1.00;;;;;;5064621;28;20520;-81
2021/12/24 11:48:33;;;;;;;1.07;1.07;;;9.70;99.90;;;;;;5071551;28;20485;-84
2021/12/24 11:51:03;;;;;;;1.80;1.00;;;9.80;38.70;;;;;;5058812;28;20445;-82
2021/12/24 11:53:33;;;;;;;0.83;0.80;;;9.80;71.10;;;;;;5063853;28;20198;-82
2021/12/24 11:56:04;;;;;;;0.82;0.80;;;9.50;99.90;;;;;;5063839;28;20484;-85
2021/12/24 11:58:33;;;;;;;0.73;0.70;;;9.80;22.40;;;;;;5064823;28;20696;-81
2021/12/24 12:01:07;;;;;;;1.47;0.70;;;10.00;90.50;;;;;;5063471;28;20582;-80
2021/12/24 12:03:38;;;;;;;1.20;0.93;;;10.00;99.90;;;;;;5069256;28;20459;-82
2021/12/24 12:06:10;;;;;;;1.00;0.90;;;9.90;1.00;;;;;;5059429;28;20457;-80
2021/12/24 12:08:44;;;;;;;0.97;0.80;;;9.90;99.90;;;;;;5069857;28;21062;-81
2021/12/24 12:11:21;;;;;;;1.63;1.07;;;9.90;99.90;;;;;;5064590;28;20479;-82
2021/12/24 12:13:55;;;;;;;1.30;0.70;;;9.90;99.90;;;;;;5066812;28;20456;-80
2021/12/24 12:16:27;;;;;;;0.70;0.70;;;9.90;99.90;;;;;;5074797;28;20470;-82
2021/12/24 12:19:13;;;;;;;2.40;0.80;;;9.90;1.00;;;;;;5064205;28;20476;-79
2021/12/24 12:21:44;;;;;;;3.80;0.80;;;9.80;1.00;;;;;;5079020;28;20567;-80
2021/12/24 12:27:16;;;;;;;0.87;0.87;;;9.80;99.90;;;;;;5064572;28;20463;-79
2021/12/24 12:29:46;;;;;;;0.73;0.63;;;9.80;99.90;;;;;;5071346;28;20505;-81
2021/12/24 12:32:40;;;;;;;0.90;0.80;;;9.70;99.90;;;;;;5060084;28;20831;-80
2021/12/24 12:35:08;;;;;;;1.13;0.70;;;9.70;1.00;;;;;;5058363;28;20468;-82
2021/12/24 12:37:49;;;;;;;0.70;0.70;;;9.70;99.90;;;;;;5078940;28;20532;-79
2021/12/24 12:40:35;;;;;;;0.83;0.83;;;9.70;1.00;;;;;;5067752;28;20440;-81
2021/12/24 12:43:12;;;;;;;0.80;0.80;;;9.80;1.00;;;;;;5049995;28;20559;-79
2021/12/24 12:46:04;;;;;;;0.77;0.67;;;9.80;1.00;;;;;;5075269;28;20587;-82
2021/12/24 12:48:53;;;;;;;0.70;0.70;;;9.80;7.70;;;;;;5059563;28;20470;-83
2021/12/24 12:51:50;;;;;;;0.60;0.50;;;9.80;99.90;;;;;;5064811;28;20470;-82
2021/12/24 12:54:30;;;;;;;1.00;0.90;;;9.90;99.90;;;;;;5061994;28;20470;-80
2021/12/24 12:57:20;;;;;;;0.70;0.70;;;10.00;1.00;;;;;;5074173;28;20462;-82
2021/12/24 13:00:17;;;;;;;1.37;0.73;;;10.00;99.90;;;;;;5064022;28;20444;-81
2021/12/24 13:03:08;;;;;;;1.00;0.80;;;9.90;99.90;;;;;;5079012;28;20457;-81
2021/12/24 13:06:13;;;;;;;4.20;0.90;;;9.90;1.00;;;;;;5064794;28;20468;-82
2021/12/24 13:08:41;;;;;;;0.80;0.60;;;9.80;1.00;;;;;;5051253;28;20465;-82
2021/12/24 13:11:13;;;;;;;0.70;0.70;;;9.90;99.90;;;;;;5066155;28;20479;-80
2021/12/24 13:14:01;;;;;;;2.40;1.10;;;10.10;1.00;;;;;;5069154;28;20463;-79
2021/12/24 13:16:34;;;;;;;0.70;0.70;;;10.20;1.00;;;;;;5061701;28;20473;-81
2021/12/24 13:19:25;;;;;;;0.70;0.70;;;10.30;1.00;;;;;;5065825;28;20476;-81
2021/12/24 13:24:47;;;;;;;0.93;0.80;;;10.40;99.90;;;;;;5063068;28;20462;-81
2021/12/24 13:27:16;;;;;;;1.43;0.70;;;10.30;1.00;;;;;;5058535;28;20972;-82
2021/12/24 13:29:45;;;;;;;0.60;0.60;;;10.40;99.90;;;;;;5075457;28;20454;-81
2021/12/24 13:32:13;;;;;;;0.80;0.80;;;10.40;1.00;;;;;;5066003;28;20449;-81
2021/12/24 13:34:42;;;;;;;0.90;0.70;;;10.40;1.00;;;;;;5067564;28;20626;-80
2021/12/24 13:37:14;;;;;;;0.93;0.77;;;10.40;99.90;;;;;;5040602;28;20826;-81
2021/12/24 13:39:47;;;;;;;0.60;0.60;;;10.20;99.90;;;;;;5068498;28;20492;-81
2021/12/24 13:42:15;;;;;;;0.93;0.93;;;10.10;98.40;;;;;;5061647;28;20481;-81
2021/12/24 13:44:47;;;;;;;1.23;0.93;;;10.10;99.90;;;;;;5058457;28;20959;-80
2021/12/24 13:47:25;;;;;;;1.20;1.00;;;10.30;99.90;;;;;;5056660;28;20490;-80
2021/12/24 13:50:12;;;;;;;1.00;0.70;;;10.40;1.00;;;;;;5063411;28;20444;-82
2021/12/24 13:55:31;;;;;;;0.70;0.70;;;10.60;1.00;;;;;;5050889;28;20497;-80
2021/12/24 13:58:02;;;;;;;0.70;0.70;;;10.40;1.00;;;;;;5069225;28;20475;-82
2021/12/24 14:00:32;;;;;;;0.70;0.70;;;10.30;1.00;;;;;;5068317;28;20504;-80
2021/12/24 14:03:02;;;;;;;0.60;0.60;;;10.30;1.00;;;;;;5045116;28;20453;-82
2021/12/24 14:05:30;;;;;;;1.17;0.93;;;10.20;99.90;;;;;;5070134;28;20457;-82
2021/12/24 14:08:09;;;;;;;1.43;1.33;;;10.20;76.90;;;;;;5070335;28;20475;-79
2021/12/24 14:10:38;;;;;;;1.30;0.70;;;10.30;1.00;;;;;;5059754;28;20484;-79
2021/12/24 14:13:11;;;;;;;0.70;0.70;;;10.40;99.90;;;;;;5060657;28;21593;-78
2021/12/24 14:15:58;;;;;;;1.07;0.70;;;10.30;99.90;;;;;;5062366;28;21023;-82
2021/12/24 14:18:43;;;;;;;0.80;0.57;;;10.20;1.00;;;;;;5058163;28;21140;-80
2021/12/24 14:21:47;;;;;;;1.27;0.80;;;10.40;1.00;;;;;;5059575;28;20515;-79
2021/12/24 14:24:21;;;;;;;0.67;0.63;;;10.10;99.90;;;;;;5049308;28;20462;-82
2021/12/24 14:26:55;;;;;;;1.67;1.57;;;10.20;99.90;;;;;;5045270;28;20462;-80
2021/12/24 14:29:42;;;;;;;1.47;1.37;;;10.20;13.70;;;;;;5061172;28;20462;-83
2021/12/24 14:32:11;;;;;;;1.60;0.80;;;10.30;1.00;;;;;;5065250;28;20488;-81
2021/12/24 14:34:46;;;;;;;0.97;0.80;;;10.40;99.90;;;;;;5049156;28;20453;-80
2021/12/24 14:37:21;;;;;;;1.08;0.70;;;10.40;99.90;;;;;;5058062;28;20441;-82
2021/12/24 14:39:53;;;;;;;1.07;0.97;;;10.50;99.90;;;;;;5060499;28;20238;-81
2021/12/24 14:42:25;;;;;;;1.07;0.80;;;10.10;99.90;;;;;;5058346;28;20480;-81
2021/12/24 14:44:55;;;;;;;1.90;1.07;;;10.50;1.00;;;;;;5054432;28;20947;-80
2021/12/24 14:47:28;;;;;;;2.00;1.40;;;10.60;1.00;;;;;;5058640;28;20453;-80
2021/12/24 14:50:02;;;;;;;1.00;1.00;;;10.60;1.00;;;;;;5060989;28;20465;-79